Time;durP1;ratioP1;P1;durP2;ratioP2;P2;SDS_P1;SDS_P2;PMS_P1;PMS_P2;Temp;Humidity;BMP_temperature;BMP_pressure;BME280_temperature;BME280_humidity;BME280_pressure;Samples;Min_cycle;Max_cycle;Signal;HPM_P1;HPM_P2
2022/05/21 00:01:02;;;;;;;749.70;704.30;;;11.10;99.90;;;;;;5058024;28;20471;-81
2022/05/21 00:03:29;;;;;;;741.90;696.20;;;11.30;99.90;;;;;;5057217;28;20473;-81
2022/05/21 00:05:56;;;;;;;733.70;689.00;;;11.00;99.90;;;;;;5058044;28;20451;-81
2022/05/21 00:08:22;;;;;;;725.60;682.90;;;11.10;99.90;;;;;;5048280;28;20452;-80
2022/05/21 00:10:49;;;;;;;741.57;697.87;;;11.10;99.90;;;;;;5037881;28;20460;-80
2022/05/21 00:13:16;;;;;;;735.73;691.70;;;11.10;99.90;;;;;;5044724;28;20549;-81
2022/05/21 00:15:43;;;;;;;717.90;675.20;;;11.00;99.90;;;;;;5057603;28;20454;-80
2022/05/21 00:18:11;;;;;;;722.27;678.87;;;11.10;99.90;;;;;;5044452;28;20448;-80
2022/05/21 00:20:50;;;;;;;729.93;686.27;;;11.00;99.90;;;;;;5036791;28;20481;-80
2022/05/21 00:23:20;;;;;;;735.03;690.57;;;11.00;99.90;;;;;;5050990;28;20859;-81
2022/05/21 00:25:49;;;;;;;746.73;700.97;;;11.00;99.90;;;;;;5047173;28;21182;-81
2022/05/21 00:28:16;;;;;;;742.20;696.70;;;10.90;99.90;;;;;;5037065;28;20463;-80
2022/05/21 00:30:44;;;;;;;765.93;718.77;;;11.10;99.90;;;;;;5038219;28;20468;-80
2022/05/21 00:33:12;;;;;;;780.03;730.17;;;10.80;99.90;;;;;;5037565;28;20476;-80
2022/05/21 00:35:39;;;;;;;790.27;739.47;;;10.90;99.90;;;;;;5045853;28;20447;-80
2022/05/21 00:38:07;;;;;;;798.17;746.70;;;10.90;99.90;;;;;;5057189;28;20550;-80
2022/05/21 00:40:35;;;;;;;809.73;757.20;;;10.90;99.90;;;;;;5049710;28;20502;-81
2022/05/21 00:43:02;;;;;;;840.43;785.40;;;10.80;99.90;;;;;;5037808;28;20456;-80
2022/05/21 00:45:30;;;;;;;827.60;772.90;;;10.80;99.90;;;;;;5054287;28;20458;-81
2022/05/21 00:47:56;;;;;;;821.47;766.23;;;10.80;99.90;;;;;;5057369;28;21038;-81
2022/05/21 00:50:29;;;;;;;842.27;784.97;;;10.70;99.90;;;;;;5039918;28;20472;-81
2022/05/21 00:52:58;;;;;;;840.37;781.60;;;10.70;99.90;;;;;;5037020;28;20972;-80
2022/05/21 00:55:27;;;;;;;847.87;786.70;;;10.50;99.90;;;;;;5052294;28;20459;-80
2022/05/21 01:00:39;;;;;;;864.70;803.10;;;10.70;99.90;;;;;;5038874;28;20469;-81
2022/05/21 01:03:07;;;;;;;850.33;788.13;;;10.60;99.90;;;;;;5036834;28;20452;-81
2022/05/21 01:05:38;;;;;;;855.90;793.90;;;10.80;99.90;;;;;;5050683;28;20452;-81
2022/05/21 01:08:05;;;;;;;849.27;787.43;;;10.80;99.90;;;;;;5044456;28;20455;-81
2022/05/21 01:10:38;;;;;;;852.97;792.57;;;10.80;99.90;;;;;;5035691;28;20495;-81
2022/05/21 01:13:09;;;;;;;855.27;796.27;;;10.80;99.90;;;;;;5048298;28;20458;-81
2022/05/21 01:15:40;;;;;;;853.53;793.67;;;10.80;99.90;;;;;;5056944;28;20470;-81
2022/05/21 01:18:07;;;;;;;862.30;802.00;;;10.80;99.90;;;;;;5044830;28;20452;-80
2022/05/21 01:20:41;;;;;;;857.33;796.43;;;10.70;99.90;;;;;;5036148;28;20472;-80
2022/05/21 01:23:09;;;;;;;852.03;792.90;;;10.70;99.90;;;;;;5045986;28;20952;-81
2022/05/21 01:25:38;;;;;;;854.83;794.23;;;10.60;99.90;;;;;;5056357;28;20458;-80
2022/05/21 01:28:07;;;;;;;856.17;795.30;;;10.70;99.90;;;;;;5046335;28;20498;-80
2022/05/21 01:30:39;;;;;;;855.53;793.83;;;10.70;99.90;;;;;;5036472;28;20488;-80
2022/05/21 01:33:08;;;;;;;852.40;791.80;;;10.70;99.90;;;;;;5045719;28;20455;-81
2022/05/21 01:35:35;;;;;;;843.03;782.77;;;10.70;99.90;;;;;;5056085;28;20458;-81
2022/05/21 01:38:02;;;;;;;842.40;782.67;;;10.70;99.90;;;;;;5047994;28;20485;-81
2022/05/21 01:40:31;;;;;;;834.67;776.00;;;10.70;99.90;;;;;;5035768;28;20468;-80
2022/05/21 01:45:42;;;;;;;822.00;767.30;;;10.70;99.90;;;;;;5055983;28;20433;-81
2022/05/21 01:48:10;;;;;;;806.10;754.33;;;10.80;99.90;;;;;;5016158;28;20457;-80
2022/05/21 01:50:38;;;;;;;798.93;749.03;;;10.80;99.90;;;;;;5056699;22;20491;-80
2022/05/21 01:53:05;;;;;;;780.47;731.93;;;10.70;99.90;;;;;;5051880;28;20449;-80
2022/05/21 01:55:34;;;;;;;764.73;718.30;;;10.70;99.90;;;;;;5052311;28;20451;-80
2022/05/21 01:58:00;;;;;;;739.40;696.20;;;10.70;99.90;;;;;;5052063;28;20451;-81
2022/05/21 02:00:27;;;;;;;738.13;696.00;;;10.80;99.90;;;;;;5051377;28;20471;-80
2022/05/21 02:02:54;;;;;;;717.83;677.00;;;10.80;99.90;;;;;;5052237;28;20447;-80
2022/05/21 02:05:21;;;;;;;681.60;644.60;;;10.80;99.90;;;;;;5052370;28;20448;-80
2022/05/21 02:07:47;;;;;;;656.43;623.00;;;10.80;99.90;;;;;;5052219;28;20454;-81
2022/05/21 02:10:14;;;;;;;597.47;568.80;;;10.90;99.90;;;;;;5051411;28;20983;-80
2022/05/21 02:12:42;;;;;;;576.97;550.70;;;11.00;99.90;;;;;;5052007;28;20454;-80
2022/05/21 02:15:10;;;;;;;536.33;512.93;;;11.10;99.90;;;;;;5051993;28;20528;-80
2022/05/21 02:17:37;;;;;;;525.43;504.23;;;11.10;99.90;;;;;;5052175;28;20458;-81
2022/05/21 02:20:04;;;;;;;487.23;467.57;;;11.00;99.90;;;;;;5051063;28;20995;-80
2022/05/21 02:22:31;;;;;;;453.00;435.60;;;11.10;99.90;;;;;;5053446;28;20454;-80
2022/05/21 02:24:58;;;;;;;456.47;439.27;;;11.20;99.90;;;;;;5056331;28;20451;-80
2022/05/21 02:27:24;;;;;;;430.57;415.07;;;11.10;99.90;;;;;;5056022;28;20459;-80
2022/05/21 02:29:52;;;;;;;450.73;434.57;;;11.10;99.90;;;;;;5054823;28;20883;-81
2022/05/21 02:32:19;;;;;;;405.20;389.90;;;11.00;99.90;;;;;;5055179;28;20459;-80
2022/05/21 02:34:46;;;;;;;409.17;394.50;;;11.10;99.90;;;;;;5055841;28;20455;-80
2022/05/21 02:39:57;;;;;;;447.20;430.50;;;11.00;99.90;;;;;;5054886;28;20870;-80
2022/05/21 02:45:11;;;;;;;509.20;489.10;;;10.90;99.90;;;;;;5055717;28;20473;-80
2022/05/21 02:47:38;;;;;;;540.07;518.17;;;10.90;99.90;;;;;;5056372;28;20538;-80
2022/05/21 02:50:07;;;;;;;553.87;531.17;;;10.80;99.90;;;;;;5054470;28;20486;-80
2022/05/21 02:52:33;;;;;;;573.77;548.70;;;10.80;99.90;;;;;;5055423;28;20463;-80
2022/05/21 02:55:00;;;;;;;588.93;563.33;;;10.80;99.90;;;;;;5054924;28;20458;-80
2022/05/21 02:57:27;;;;;;;595.17;568.40;;;10.80;99.90;;;;;;5056206;28;20455;-80
2022/05/21 02:59:54;;;;;;;608.80;580.80;;;10.90;99.90;;;;;;5055003;28;20475;-80
2022/05/21 03:02:23;;;;;;;603.97;576.50;;;10.90;99.90;;;;;;5057661;28;20464;-80
2022/05/21 03:04:49;;;;;;;581.10;554.93;;;11.00;99.90;;;;;;5054403;28;20455;-80
2022/05/21 03:07:16;;;;;;;541.33;517.90;;;11.10;99.90;;;;;;5056515;28;20458;-78
2022/05/21 03:12:27;;;;;;;383.43;368.33;;;11.30;99.90;;;;;;5062841;28;20497;-78
2022/05/21 03:14:53;;;;;;;310.87;299.60;;;11.50;99.90;;;;;;5064110;28;20454;-79
2022/05/21 03:17:22;;;;;;;280.53;270.93;;;11.60;99.90;;;;;;5058053;28;20478;-83
2022/05/21 03:19:48;;;;;;;242.27;234.03;;;11.60;99.90;;;;;;5056145;28;20980;-83
2022/05/21 03:22:15;;;;;;;229.77;221.80;;;11.70;99.90;;;;;;5061328;28;20448;-83
2022/05/21 03:24:42;;;;;;;152.30;146.60;;;11.80;99.90;;;;;;5067274;28;20482;-83
2022/05/21 03:27:10;;;;;;;110.83;106.63;;;11.90;99.90;;;;;;5071490;28;20482;-82
2022/05/21 03:29:37;;;;;;;80.73;77.53;;;11.90;99.90;;;;;;5072607;28;20455;-82
2022/05/21 03:32:04;;;;;;;51.10;48.63;;;12.00;99.90;;;;;;5073530;28;20443;-81
2022/05/21 03:34:32;;;;;;;50.37;48.17;;;12.00;99.90;;;;;;5069089;28;20443;-80
2022/05/21 03:36:59;;;;;;;55.03;51.73;;;12.20;99.90;;;;;;5071683;28;20458;-80
2022/05/21 03:39:26;;;;;;;44.70;42.60;;;12.20;99.90;;;;;;5071791;28;20474;-81
2022/05/21 03:41:52;;;;;;;44.47;41.67;;;12.20;99.90;;;;;;5070676;28;20467;-80
2022/05/21 03:44:19;;;;;;;37.93;36.23;;;12.20;99.90;;;;;;5071806;28;20448;-80
2022/05/21 03:46:46;;;;;;;27.27;25.50;;;12.20;99.90;;;;;;5073050;28;20486;-81
2022/05/21 03:49:13;;;;;;;21.23;19.90;;;12.20;99.90;;;;;;5068804;28;20455;-81
2022/05/21 03:51:41;;;;;;;19.27;17.23;;;12.30;99.90;;;;;;5072487;28;20460;-81
2022/05/21 03:54:08;;;;;;;17.03;15.83;;;12.40;99.90;;;;;;5071062;28;20451;-82
2022/05/21 03:56:35;;;;;;;11.77;10.00;;;12.40;99.90;;;;;;5055703;28;20451;-84
2022/05/21 03:59:02;;;;;;;12.37;11.30;;;12.40;99.90;;;;;;5059820;28;20459;-84
2022/05/21 04:01:28;;;;;;;12.20;11.20;;;12.40;99.90;;;;;;5055393;28;20463;-81
2022/05/21 04:03:56;;;;;;;11.23;10.33;;;12.50;99.90;;;;;;5053373;28;20451;-81
2022/05/21 04:06:23;;;;;;;11.00;9.17;;;12.40;99.90;;;;;;5055950;28;20484;-81
2022/05/21 04:08:52;;;;;;;10.80;9.80;;;12.40;99.90;;;;;;5056755;28;20455;-81
2022/05/21 04:11:19;;;;;;;13.73;10.37;;;12.40;99.90;;;;;;5054127;28;20479;-82
2022/05/21 04:13:46;;;;;;;7.20;6.43;;;12.50;99.90;;;;;;5058425;28;20870;-82
2022/05/21 04:16:12;;;;;;;12.03;7.30;;;12.50;99.90;;;;;;5054697;28;20454;-81
2022/05/21 04:18:39;;;;;;;7.70;6.20;;;12.50;99.90;;;;;;5054090;28;20450;-81
2022/05/21 04:21:06;;;;;;;12.60;6.13;;;12.50;99.90;;;;;;5059590;28;20463;-81
2022/05/21 04:23:33;;;;;;;8.67;6.33;;;12.50;99.90;;;;;;5058155;28;20453;-81
2022/05/21 04:26:01;;;;;;;9.90;7.20;;;12.50;99.90;;;;;;5054260;28;20448;-82
2022/05/21 04:28:28;;;;;;;11.80;6.03;;;12.60;99.90;;;;;;5057307;28;20447;-83
2022/05/21 04:30:55;;;;;;;9.00;5.07;;;12.60;99.90;;;;;;5058151;28;21003;-83
2022/05/21 04:33:21;;;;;;;8.80;6.80;;;12.70;99.90;;;;;;5061447;28;20455;-80
2022/05/21 04:38:33;;;;;;;8.27;5.00;;;12.60;99.90;;;;;;5056195;28;20533;-82
2022/05/21 04:41:02;;;;;;;6.90;6.20;;;12.60;99.90;;;;;;5056109;28;20471;-81
2022/05/21 04:43:30;;;;;;;8.27;6.10;;;12.70;99.90;;;;;;5048036;28;20452;-82
2022/05/21 04:45:57;;;;;;;12.07;6.53;;;12.60;99.90;;;;;;5060248;28;20451;-80
2022/05/21 04:48:24;;;;;;;13.43;7.70;;;12.60;99.90;;;;;;5059135;28;20540;-80
2022/05/21 04:50:51;;;;;;;8.10;6.73;;;12.70;99.90;;;;;;5059309;28;20471;-80
2022/05/21 04:53:18;;;;;;;12.00;5.57;;;12.60;99.90;;;;;;5060285;28;20455;-80
2022/05/21 04:55:44;;;;;;;9.67;4.30;;;12.80;99.90;;;;;;5058327;28;20444;-80
2022/05/21 04:58:12;;;;;;;6.80;4.83;;;12.70;99.90;;;;;;5058975;28;20451;-80
2022/05/21 05:00:39;;;;;;;7.27;3.77;;;12.80;99.90;;;;;;5057681;28;20478;-80
2022/05/21 05:03:11;;;;;;;8.37;4.60;;;12.80;99.90;;;;;;5057780;28;20455;-80
2022/05/21 05:05:39;;;;;;;9.03;4.20;;;12.80;99.90;;;;;;5057900;28;20459;-80
2022/05/21 05:08:06;;;;;;;17.07;5.10;;;12.80;99.90;;;;;;5049858;28;20455;-80
2022/05/21 05:10:33;;;;;;;10.13;4.40;;;12.80;99.90;;;;;;5054311;28;20562;-80
2022/05/21 05:13:00;;;;;;;9.10;4.43;;;12.80;99.90;;;;;;5067176;28;20454;-79
2022/05/21 05:15:28;;;;;;;7.20;3.73;;;12.90;99.90;;;;;;5073667;28;20543;-79
2022/05/21 05:17:59;;;;;;;8.13;3.90;;;12.80;99.90;;;;;;5062888;28;20459;-80
2022/05/21 05:20:26;;;;;;;6.80;3.87;;;12.90;99.90;;;;;;5052223;28;20471;-80
2022/05/21 05:22:53;;;;;;;13.83;4.10;;;12.90;99.90;;;;;;5054168;28;20522;-80
2022/05/21 05:25:20;;;;;;;10.77;4.90;;;13.00;99.90;;;;;;5053420;28;20452;-80
2022/05/21 05:27:48;;;;;;;11.03;4.23;;;12.90;99.90;;;;;;5053902;28;20846;-81
2022/05/21 05:30:15;;;;;;;7.73;3.93;;;13.00;99.90;;;;;;5051993;28;20868;-81
2022/05/21 05:32:43;;;;;;;9.90;4.17;;;13.00;99.90;;;;;;5051601;28;20452;-81
2022/05/21 05:35:10;;;;;;;9.40;4.40;;;13.10;99.90;;;;;;5046242;28;20454;-81
2022/05/21 05:37:38;;;;;;;8.60;3.53;;;13.10;99.90;;;;;;5050346;28;20455;-81
2022/05/21 05:40:06;;;;;;;21.80;4.63;;;13.10;99.90;;;;;;5051433;28;20558;-80
2022/05/21 05:42:35;;;;;;;10.37;3.70;;;13.20;99.90;;;;;;5052404;28;20447;-81
2022/05/21 05:45:02;;;;;;;11.60;4.80;;;13.20;99.80;;;;;;5050539;28;20455;-80
2022/05/21 05:47:28;;;;;;;8.87;3.77;;;13.30;99.90;;;;;;5052623;28;20443;-80
2022/05/21 05:49:56;;;;;;;11.43;3.90;;;13.40;99.40;;;;;;5056471;28;20487;-81
2022/05/21 05:52:23;;;;;;;7.30;3.63;;;13.30;99.50;;;;;;5057605;28;20837;-81
2022/05/21 05:54:50;;;;;;;8.63;3.90;;;13.40;99.90;;;;;;5058305;28;20489;-80
2022/05/21 05:57:17;;;;;;;6.30;3.50;;;13.40;99.00;;;;;;5055846;28;20470;-80
2022/05/21 05:59:48;;;;;;;11.20;4.20;;;13.40;98.70;;;;;;5054902;28;20451;-81
2022/05/21 06:05:02;;;;;;;14.90;5.37;;;13.30;99.40;;;;;;5057402;28;20443;-80
2022/05/21 06:07:29;;;;;;;10.40;5.17;;;13.40;99.30;;;;;;5056591;28;20447;-80
2022/05/21 06:10:02;;;;;;;13.60;5.50;;;13.50;98.80;;;;;;5055365;28;20475;-80
2022/05/21 06:12:29;;;;;;;14.50;5.57;;;13.40;99.30;;;;;;5055506;28;20498;-81
2022/05/21 06:14:56;;;;;;;7.97;4.60;;;13.40;98.60;;;;;;5059916;28;20458;-81
2022/05/21 06:17:23;;;;;;;10.20;5.53;;;13.40;99.00;;;;;;5059855;28;20455;-80
2022/05/21 06:19:49;;;;;;;11.70;5.77;;;13.40;98.40;;;;;;5057198;28;20467;-81
2022/05/21 06:22:17;;;;;;;7.30;4.57;;;13.40;99.20;;;;;;5058545;28;20452;-83
2022/05/21 06:24:44;;;;;;;12.27;5.53;;;13.30;99.00;;;;;;5059153;28;20444;-82
2022/05/21 06:27:11;;;;;;;13.70;5.47;;;13.30;99.00;;;;;;5058124;28;20864;-82
2022/05/21 06:29:38;;;;;;;10.60;5.47;;;13.40;99.00;;;;;;5055674;28;20942;-82
2022/05/21 06:32:06;;;;;;;9.47;5.57;;;13.50;98.90;;;;;;5057815;28;20479;-82
2022/05/21 06:34:33;;;;;;;10.53;4.77;;;13.50;99.10;;;;;;5057639;28;20455;-82
2022/05/21 06:37:03;;;;;;;7.40;4.97;;;13.50;99.00;;;;;;5060008;28;20458;-83
2022/05/21 06:39:32;;;;;;;11.23;4.73;;;13.70;97.00;;;;;;5056267;28;20471;-82
2022/05/21 06:42:00;;;;;;;9.30;5.50;;;13.80;98.00;;;;;;5055115;28;20520;-82
2022/05/21 06:44:27;;;;;;;12.33;5.30;;;14.00;96.90;;;;;;5055297;28;20985;-82
2022/05/21 06:46:53;;;;;;;15.97;5.40;;;13.90;96.90;;;;;;5054894;28;20462;-82
2022/05/21 06:49:21;;;;;;;11.10;4.97;;;14.00;96.10;;;;;;5053535;28;20990;-82
2022/05/21 06:51:48;;;;;;;13.23;4.40;;;14.10;95.90;;;;;;5055228;28;20479;-82
2022/05/21 06:54:14;;;;;;;14.20;5.20;;;14.20;95.80;;;;;;5053645;28;20456;-82
2022/05/21 06:56:43;;;;;;;14.60;4.87;;;14.10;94.90;;;;;;5054833;28;20447;-82
2022/05/21 06:59:09;;;;;;;11.60;4.90;;;14.20;95.40;;;;;;5053725;28;20959;-81
2022/05/21 07:01:36;;;;;;;15.57;5.03;;;14.20;94.60;;;;;;5063166;28;20467;-80
2022/05/21 07:04:03;;;;;;;21.53;5.20;;;14.10;94.30;;;;;;5056253;28;20455;-81
2022/05/21 07:09:14;;;;;;;11.60;4.50;;;14.30;94.10;;;;;;5050323;28;20581;-80
2022/05/21 07:11:42;;;;;;;14.20;4.70;;;14.30;94.60;;;;;;5053865;28;20480;-80
2022/05/21 07:14:09;;;;;;;9.87;4.33;;;14.30;94.60;;;;;;5053039;28;20838;-79
2022/05/21 07:16:36;;;;;;;10.87;4.73;;;14.40;94.90;;;;;;5066691;28;20456;-81
2022/05/21 07:19:03;;;;;;;10.20;5.60;;;14.50;93.80;;;;;;5065963;28;20448;-80
2022/05/21 07:21:29;;;;;;;12.20;4.80;;;14.60;92.90;;;;;;5060986;28;20468;-81
2022/05/21 07:23:57;;;;;;;8.40;4.23;;;14.60;93.70;;;;;;5054301;28;20455;-81
2022/05/21 07:26:24;;;;;;;13.87;5.50;;;14.80;92.90;;;;;;5054377;28;20539;-80
2022/05/21 07:28:52;;;;;;;11.40;4.47;;;14.80;93.40;;;;;;5051592;28;20451;-81
2022/05/21 07:31:19;;;;;;;10.07;5.40;;;14.80;92.50;;;;;;5054682;28;20482;-81
2022/05/21 07:33:46;;;;;;;10.40;5.33;;;14.90;91.70;;;;;;5054949;28;20970;-81
2022/05/21 07:36:13;;;;;;;16.90;5.13;;;15.00;90.60;;;;;;5054404;28;20458;-82
2022/05/21 07:38:40;;;;;;;11.73;4.30;;;15.20;89.70;;;;;;5053006;28;20461;-81
2022/05/21 07:41:07;;;;;;;11.03;4.53;;;15.50;88.60;;;;;;5054719;28;20473;-82
2022/05/21 07:43:34;;;;;;;11.23;5.30;;;15.90;88.50;;;;;;5054949;28;20466;-81
2022/05/21 07:46:03;;;;;;;12.35;4.57;;;16.10;82.50;;;;;;5052987;28;20451;-80
2022/05/21 07:48:30;;;;;;;10.50;4.20;;;15.90;82.30;;;;;;5055320;28;20670;-81
2022/05/21 07:50:59;;;;;;;13.67;5.10;;;16.20;80.30;;;;;;5084467;22;20517;-83
2022/05/21 07:53:28;;;;;;;8.70;4.70;;;16.40;80.00;;;;;;5065708;28;20459;-83
2022/05/21 07:55:56;;;;;;;11.13;4.50;;;16.50;79.10;;;;;;5063428;28;20443;-83
2022/05/21 07:58:25;;;;;;;8.70;3.90;;;16.80;80.80;;;;;;5062681;28;20470;-84
2022/05/21 08:00:53;;;;;;;11.40;4.30;;;16.70;75.90;;;;;;5059503;28;20467;-82
2022/05/21 08:03:21;;;;;;;13.37;4.80;;;16.70;72.80;;;;;;5059072;28;20482;-82
2022/05/21 08:05:48;;;;;;;13.23;4.50;;;16.80;75.50;;;;;;5058867;28;20448;-82
2022/05/21 08:08:15;;;;;;;13.40;4.60;;;16.50;74.90;;;;;;5057721;28;20450;-81
2022/05/21 08:10:44;;;;;;;12.50;4.53;;;16.30;73.40;;;;;;5064700;28;20543;-80
2022/05/21 08:13:12;;;;;;;10.80;4.90;;;16.30;74.20;;;;;;5067658;28;20476;-82
2022/05/21 08:15:40;;;;;;;12.13;4.63;;;16.50;75.00;;;;;;5069881;28;20456;-81
2022/05/21 08:18:07;;;;;;;10.93;4.37;;;16.90;72.00;;;;;;5068269;28;21034;-80
2022/05/21 08:20:37;;;;;;;13.77;3.93;;;17.60;69.50;;;;;;5067843;28;20464;-81
2022/05/21 08:28:32;;;;;;;11.70;5.00;;;17.70;61.90;;;;;;5033248;28;20445;-81
2022/05/21 08:30:59;;;;;;;10.80;3.87;;;18.30;63.10;;;;;;5069514;28;20469;-80
2022/05/21 08:33:27;;;;;;;14.70;3.73;;;18.10;59.30;;;;;;5066837;28;20473;-81
2022/05/21 08:35:55;;;;;;;10.60;4.17;;;18.20;55.40;;;;;;5067686;28;20472;-80
2022/05/21 08:38:22;;;;;;;10.83;4.20;;;18.70;58.60;;;;;;5061904;28;20485;-83
2022/05/21 08:40:55;;;;;;;7.20;4.00;;;19.30;53.70;;;;;;5060685;28;20474;-83
2022/05/21 08:43:24;;;;;;;7.87;3.53;;;19.90;53.10;;;;;;5065999;28;20458;-83
2022/05/21 08:46:10;;;;;;;10.67;3.60;;;20.00;46.00;;;;;;5066044;28;20459;-84
2022/05/21 08:48:40;;;;;;;14.77;6.00;;;19.70;48.00;;;;;;5063527;28;20606;-82
2022/05/21 08:51:17;;;;;;;17.30;3.60;;;19.40;46.40;;;;;;5060040;28;20489;-83
2022/05/21 08:53:49;;;;;;;11.20;3.53;;;18.90;47.60;;;;;;5066066;28;20461;-83
2022/05/21 08:56:16;;;;;;;11.20;3.47;;;18.80;49.10;;;;;;5065350;28;20461;-83
2022/05/21 08:58:48;;;;;;;8.17;3.10;;;19.10;48.80;;;;;;5061423;28;20463;-82
2022/05/21 09:01:18;;;;;;;9.20;4.73;;;19.30;48.30;;;;;;5057043;28;20562;-80
2022/05/21 09:03:45;;;;;;;13.33;3.83;;;19.70;45.50;;;;;;5058604;28;20463;-80
2022/05/21 09:06:27;;;;;;;8.63;3.07;;;19.50;46.20;;;;;;5057687;28;20457;-82
2022/05/21 09:09:00;;;;;;;8.93;2.83;;;19.60;44.00;;;;;;5056275;28;20447;-81
2022/05/21 09:11:36;;;;;;;7.27;2.40;;;20.00;41.30;;;;;;5054725;28;20476;-80
2022/05/21 09:14:09;;;;;;;9.53;3.20;;;20.20;40.80;;;;;;5057534;28;20462;-80
2022/05/21 09:16:55;;;;;;;14.47;2.80;;;19.10;42.80;;;;;;5059561;28;20788;-80
2022/05/21 09:19:24;;;;;;;8.75;3.22;;;19.50;43.90;;;;;;5053686;28;20462;-80
2022/05/21 09:21:58;;;;;;;6.87;2.70;;;19.90;39.80;;;;;;5053734;28;20210;-80
2022/05/21 09:24:37;;;;;;;6.43;2.90;;;19.50;41.50;;;;;;5057261;28;20916;-80
2022/05/21 09:27:05;;;;;;;11.07;3.43;;;19.70;38.50;;;;;;5059743;28;20459;-80
2022/05/21 09:29:35;;;;;;;11.60;3.17;;;19.80;41.10;;;;;;5056365;28;20469;-80
2022/05/21 09:32:18;;;;;;;7.73;2.70;;;19.60;36.00;;;;;;5057684;28;20480;-80
2022/05/21 09:34:44;;;;;;;7.70;2.70;;;20.00;35.30;;;;;;5056121;28;20450;-80
2022/05/21 09:37:17;;;;;;;12.30;3.40;;;20.40;35.70;;;;;;5057540;28;20479;-80
2022/05/21 09:39:44;;;;;;;9.17;3.10;;;20.70;33.40;;;;;;5056215;28;20475;-80
2022/05/21 09:47:43;;;;;;;7.83;3.13;;;20.90;31.50;;;;;;5054141;28;20448;-81
2022/05/21 09:50:11;;;;;;;9.63;2.40;;;21.20;28.80;;;;;;5055777;28;20450;-80
2022/05/21 09:52:40;;;;;;;10.00;3.20;;;21.60;31.20;;;;;;5056478;28;20473;-80
2022/05/21 09:55:21;;;;;;;6.67;2.73;;;20.90;29.90;;;;;;5058270;28;20478;-80
2022/05/21 09:57:48;;;;;;;9.07;2.60;;;20.60;30.60;;;;;;5058032;28;20455;-80
2022/05/21 10:00:22;;;;;;;6.73;3.47;;;20.50;32.60;;;;;;5057207;28;20454;-82
2022/05/21 10:02:50;;;;;;;8.13;3.43;;;21.10;34.00;;;;;;5056183;28;20517;-82
2022/05/21 10:05:22;;;;;;;10.50;3.10;;;21.30;32.30;;;;;;5059007;28;20972;-82
2022/05/21 10:11:00;;;;;;;7.73;3.10;;;22.40;29.90;;;;;;5056361;28;20505;-84
2022/05/21 10:13:31;;;;;;;8.67;2.97;;;23.20;22.00;;;;;;5069515;28;20451;-81
2022/05/21 10:16:04;;;;;;;8.27;2.83;;;23.90;25.40;;;;;;5068069;28;20465;-82
2022/05/21 10:18:35;;;;;;;9.37;3.00;;;23.60;22.30;;;;;;5065747;28;20453;-82
2022/05/21 10:21:08;;;;;;;11.27;2.67;;;23.20;20.60;;;;;;5067916;28;20475;-82
2022/05/21 10:23:44;;;;;;;9.43;3.00;;;22.30;22.80;;;;;;5056463;28;20467;-80
2022/05/21 10:26:37;;;;;;;10.07;3.20;;;22.20;25.00;;;;;;5055384;28;20461;-80
2022/05/21 10:29:35;;;;;;;9.47;3.17;;;22.30;20.80;;;;;;5050428;28;20463;-80
2022/05/21 10:32:12;;;;;;;13.03;3.13;;;23.10;21.10;;;;;;5053641;28;20512;-80
2022/05/21 10:34:49;;;;;;;10.17;2.90;;;23.10;22.30;;;;;;5055769;28;20510;-80
2022/05/21 10:37:32;;;;;;;18.87;4.50;;;23.00;15.30;;;;;;5053329;28;20451;-79
2022/05/21 10:40:23;;;;;;;9.00;2.80;;;24.30;17.70;;;;;;5054767;28;20482;-80
2022/05/21 10:43:06;;;;;;;11.00;3.47;;;25.00;17.90;;;;;;5045128;28;20478;-79
2022/05/21 10:45:36;;;;;;;6.53;3.23;;;23.60;15.70;;;;;;5059423;28;20459;-80
2022/05/21 10:48:15;;;;;;;10.17;3.40;;;21.80;20.30;;;;;;5058575;28;20834;-80
2022/05/21 10:50:51;;;;;;;11.13;3.10;;;21.10;20.50;;;;;;5059271;28;20568;-80
2022/05/21 10:53:36;;;;;;;7.93;2.87;;;20.40;23.10;;;;;;5059011;28;20450;-81
2022/05/21 10:56:25;;;;;;;7.47;3.23;;;19.60;26.30;;;;;;5059734;28;20449;-81
2022/05/21 10:59:06;;;;;;;10.27;3.00;;;19.10;25.30;;;;;;5061611;28;20453;-81
2022/05/21 11:01:40;;;;;;;12.97;4.37;;;18.80;27.00;;;;;;5063171;28;20846;-81
2022/05/21 11:04:23;;;;;;;8.97;3.73;;;19.10;29.50;;;;;;5061804;28;20468;-80
2022/05/21 11:07:23;;;;;;;10.07;3.80;;;19.70;28.90;;;;;;5060446;28;20453;-81
2022/05/21 11:10:02;;;;;;;9.73;3.10;;;20.80;25.10;;;;;;5057872;28;20501;-81
2022/05/21 11:12:34;;;;;;;12.03;4.10;;;21.90;24.30;;;;;;5058879;28;20450;-81
2022/05/21 11:15:06;;;;;;;7.80;2.80;;;22.50;20.90;;;;;;5058356;28;20456;-81
2022/05/21 11:17:39;;;;;;;7.57;3.50;;;22.80;19.40;;;;;;5058839;28;20946;-81
2022/05/21 11:20:15;;;;;;;9.83;3.17;;;23.20;17.00;;;;;;5057362;28;20548;-81
2022/05/21 11:22:53;;;;;;;8.27;3.63;;;23.40;13.30;;;;;;5058071;28;20489;-87
2022/05/21 11:25:24;;;;;;;8.83;3.13;;;22.80;17.60;;;;;;5059987;28;20458;-81
2022/05/21 11:27:58;;;;;;;9.57;3.47;;;23.40;16.00;;;;;;5059439;28;20447;-82
2022/05/21 11:30:25;;;;;;;9.20;3.07;;;23.60;14.80;;;;;;5058602;28;20471;-82
2022/05/21 11:38:31;;;;;;;9.07;2.70;;;22.80;12.40;;;;;;5057374;28;20505;-80
2022/05/21 11:47:40;;;;;;;8.73;3.07;;;23.80;14.90;;;;;;4997632;28;20446;-81
2022/05/21 11:50:19;;;;;;;10.33;2.83;;;24.10;10.20;;;;;;4996215;28;20478;-81
2022/05/21 11:53:04;;;;;;;7.67;2.30;;;24.50;12.10;;;;;;5041512;28;20458;-81
2022/05/21 11:55:54;;;;;;;7.83;2.10;;;23.20;9.80;;;;;;5059273;28;20451;-81
2022/05/21 11:58:26;;;;;;;10.57;3.67;;;23.00;8.80;;;;;;5058962;28;20470;-83
2022/05/21 12:00:55;;;;;;;9.00;3.00;;;23.70;11.20;;;;;;5058188;28;20471;-82
2022/05/21 12:03:24;;;;;;;7.40;1.93;;;24.00;7.40;;;;;;5057880;28;20478;-82
2022/05/21 12:06:14;;;;;;;7.20;2.20;;;24.30;7.60;;;;;;5058613;28;20455;-79
2022/05/21 12:08:48;;;;;;;11.63;3.60;;;23.80;5.30;;;;;;5056794;28;20439;-81
2022/05/21 12:11:41;;;;;;;5.80;2.37;;;23.20;8.00;;;;;;5047771;28;20647;-83
2022/05/21 12:14:16;;;;;;;8.73;3.10;;;24.20;9.40;;;;;;5048424;28;20448;-81
2022/05/21 12:16:48;;;;;;;14.43;3.00;;;24.60;7.80;;;;;;5057608;28;20457;-80
2022/05/21 12:20:01;;;;;;;8.90;2.87;;;25.00;7.30;;;;;;5066080;28;20451;-82
2022/05/21 12:22:50;;;;;;;6.47;2.80;;;25.30;6.00;;;;;;5068079;28;20451;-81
2022/05/21 12:25:54;;;;;;;9.70;3.17;;;26.10;1.00;;;;;;5068723;28;20475;-82
2022/05/21 12:28:22;;;;;;;7.20;2.43;;;25.80;2.60;;;;;;5068107;28;20497;-83
2022/05/21 12:30:59;;;;;;;5.40;2.20;;;26.50;1.10;;;;;;5066913;28;20869;-82
2022/05/21 12:33:41;;;;;;;7.63;2.97;;;26.60;1.00;;;;;;5068206;28;20453;-82
2022/05/21 12:36:22;;;;;;;8.33;2.93;;;26.40;1.00;;;;;;5070976;28;20477;-82
2022/05/21 12:38:52;;;;;;;9.73;2.90;;;25.40;1.00;;;;;;5059050;28;20975;-81
2022/05/21 12:41:24;;;;;;;9.47;3.20;;;24.00;1.60;;;;;;5058494;28;20441;-80
2022/05/21 12:43:53;;;;;;;7.87;2.20;;;23.80;3.10;;;;;;5057499;28;20551;-82
2022/05/21 12:46:26;;;;;;;6.93;2.40;;;24.50;4.00;;;;;;5058171;28;20452;-79
2022/05/21 12:48:57;;;;;;;9.57;2.50;;;24.70;1.00;;;;;;5057105;28;20451;-81
2022/05/21 12:51:30;;;;;;;10.63;3.70;;;24.70;1.00;;;;;;5057440;28;20475;-82
2022/05/21 12:53:57;;;;;;;5.37;2.47;;;24.70;1.00;;;;;;5059474;28;20447;-82
2022/05/21 12:56:31;;;;;;;9.17;2.97;;;25.20;1.00;;;;;;5058178;28;20455;-81
2022/05/21 12:59:06;;;;;;;14.10;3.47;;;24.50;1.00;;;;;;5056397;28;20492;-81
2022/05/21 13:01:34;;;;;;;8.73;2.97;;;24.30;1.00;;;;;;5061626;28;20471;-83
2022/05/21 13:04:02;;;;;;;8.23;2.67;;;23.80;1.00;;;;;;5077886;28;20471;-83
2022/05/21 13:06:32;;;;;;;7.70;2.60;;;24.30;2.30;;;;;;5076643;28;20427;-82
2022/05/21 13:09:01;;;;;;;11.60;2.50;;;23.90;4.00;;;;;;5075826;28;20447;-87
2022/05/21 13:11:36;;;;;;;9.53;3.07;;;24.10;3.30;;;;;;5074019;28;20459;-84
2022/05/21 13:14:08;;;;;;;8.17;3.40;;;24.90;1.70;;;;;;5059748;28;20470;-84
2022/05/21 13:16:36;;;;;;;9.10;3.20;;;24.50;1.00;;;;;;5061443;28;20431;-84
2022/05/21 13:19:33;;;;;;;10.27;2.40;;;24.80;1.00;;;;;;5056646;28;20641;-83
2022/05/21 13:22:08;;;;;;;8.10;3.07;;;24.90;1.00;;;;;;5058131;28;20594;-85
2022/05/21 13:24:43;;;;;;;8.80;2.93;;;25.60;1.00;;;;;;5054020;28;20560;-84
2022/05/21 13:27:12;;;;;;;11.20;3.37;;;25.90;1.00;;;;;;5057653;28;20515;-85
2022/05/21 13:29:40;;;;;;;7.17;2.77;;;24.20;1.00;;;;;;5056347;28;20451;-83
2022/05/21 13:32:17;;;;;;;8.23;2.93;;;25.10;1.00;;;;;;5061202;28;20498;-83
2022/05/21 13:34:46;;;;;;;9.53;2.50;;;25.40;1.00;;;;;;5044903;28;20484;-84
2022/05/21 13:37:13;;;;;;;8.77;3.20;;;26.20;1.00;;;;;;5049685;28;20459;-83